<?xml version="1.0" encoding="UTF-8" standalone="no" ?>
<gpx xmlns="http://www.topografix.com/GPX/1/1" xmlns:xsi="http://www.w3.org/2001/XMLSchema-instance" xsi:schemaLocation="http://www.topografix.com/GPX/1/1 http://www.topografix.com/GPX/1/1/gpx.xsd" version="1.1" creator="VisuGPX - https://www.visugpx.com">
  <metadata>
    <name>Parcours voiture algarve 1</name>
    <desc><![CDATA[Parcours voiture algarve 1]]></desc>
  </metadata>
  <trk>
    <name><![CDATA[ACTIVE LOG125108]]></name>
    <trkseg>
      <trkpt lat="37.08226" lon="-8.0087">
        <ele>35.736</ele>
        <time>2011-08-05T10:51:08Z</time>
      </trkpt>
      <trkpt lat="37.08229" lon="-8.00864">
        <ele>43</ele>
        <time>2011-08-05T10:55:48Z</time>
      </trkpt>
      <trkpt lat="37.08229" lon="-8.00876">
        <ele>43.87</ele>
        <time>2011-08-05T10:55:53Z</time>
      </trkpt>
      <trkpt lat="37.08225" lon="-8.00895">
        <ele>44.037</ele>
        <time>2011-08-05T10:55:57Z</time>
      </trkpt>
      <trkpt lat="37.08214" lon="-8.00953">
        <ele>37.321</ele>
        <time>2011-08-05T10:56:12Z</time>
      </trkpt>
      <trkpt lat="37.08197" lon="-8.01017">
        <ele>29.569</ele>
        <time>2011-08-05T10:56:28Z</time>
      </trkpt>
      <trkpt lat="37.08192" lon="-8.01024">
        <ele>32.581</ele>
        <time>2011-08-05T10:56:37Z</time>
      </trkpt>
      <trkpt lat="37.08188" lon="-8.01036">
        <ele>33.329</ele>
        <time>2011-08-05T10:56:38Z</time>
      </trkpt>
      <trkpt lat="37.08217" lon="-8.01105">
        <ele>37.774</ele>
        <time>2011-08-05T10:56:47Z</time>
      </trkpt>
      <trkpt lat="37.08297" lon="-8.01188">
        <ele>40.206</ele>
        <time>2011-08-05T10:56:58Z</time>
      </trkpt>
      <trkpt lat="37.0838" lon="-8.01351">
        <ele>43.5</ele>
        <time>2011-08-05T10:57:08Z</time>
      </trkpt>
      <trkpt lat="37.08512" lon="-8.01412">
        <ele>51.074</ele>
        <time>2011-08-05T10:57:18Z</time>
      </trkpt>
      <trkpt lat="37.08747" lon="-8.01463">
        <ele>67.382</ele>
        <time>2011-08-05T10:57:35Z</time>
      </trkpt>
      <trkpt lat="37.08959" lon="-8.01517">
        <ele>75.238</ele>
        <time>2011-08-05T10:57:51Z</time>
      </trkpt>
      <trkpt lat="37.09076" lon="-8.01612">
        <ele>77.615</ele>
        <time>2011-08-05T10:58:00Z</time>
      </trkpt>
      <trkpt lat="37.09152" lon="-8.0175">
        <ele>77.034</ele>
        <time>2011-08-05T10:58:08Z</time>
      </trkpt>
      <trkpt lat="37.0919" lon="-8.01914">
        <ele>75.092</ele>
        <time>2011-08-05T10:58:16Z</time>
      </trkpt>
      <trkpt lat="37.09188" lon="-8.02133">
        <ele>70.529</ele>
        <time>2011-08-05T10:58:25Z</time>
      </trkpt>
      <trkpt lat="37.09208" lon="-8.0242">
        <ele>67.672</ele>
        <time>2011-08-05T10:58:36Z</time>
      </trkpt>
      <trkpt lat="37.09282" lon="-8.02605">
        <ele>68.878</ele>
        <time>2011-08-05T10:58:44Z</time>
      </trkpt>
      <trkpt lat="37.09349" lon="-8.02834">
        <ele>69.037</ele>
        <time>2011-08-05T10:58:54Z</time>
      </trkpt>
      <trkpt lat="37.09349" lon="-8.03057">
        <ele>68.393</ele>
        <time>2011-08-05T10:59:03Z</time>
      </trkpt>
      <trkpt lat="37.09334" lon="-8.03559">
        <ele>61.151</ele>
        <time>2011-08-05T10:59:23Z</time>
      </trkpt>
      <trkpt lat="37.09366" lon="-8.0372">
        <ele>56.89</ele>
        <time>2011-08-05T10:59:30Z</time>
      </trkpt>
      <trkpt lat="37.09437" lon="-8.03864">
        <ele>53.885</ele>
        <time>2011-08-05T10:59:37Z</time>
      </trkpt>
      <trkpt lat="37.09519" lon="-8.04071">
        <ele>53.226</ele>
        <time>2011-08-05T10:59:47Z</time>
      </trkpt>
      <trkpt lat="37.09559" lon="-8.04332">
        <ele>51.417</ele>
        <time>2011-08-05T10:59:59Z</time>
      </trkpt>
      <trkpt lat="37.09643" lon="-8.04595">
        <ele>45.953</ele>
        <time>2011-08-05T11:00:12Z</time>
      </trkpt>
      <trkpt lat="37.09763" lon="-8.04842">
        <ele>38.01</ele>
        <time>2011-08-05T11:00:26Z</time>
      </trkpt>
      <trkpt lat="37.09841" lon="-8.05026">
        <ele>39.591</ele>
        <time>2011-08-05T11:00:37Z</time>
      </trkpt>
      <trkpt lat="37.09847" lon="-8.05045">
        <ele>40.599</ele>
        <time>2011-08-05T11:00:39Z</time>
      </trkpt>
      <trkpt lat="37.09879" lon="-8.05066">
        <ele>41.023</ele>
        <time>2011-08-05T11:00:44Z</time>
      </trkpt>
      <trkpt lat="37.09875" lon="-8.05123">
        <ele>41.669</ele>
        <time>2011-08-05T11:00:50Z</time>
      </trkpt>
      <trkpt lat="37.09821" lon="-8.05141">
        <ele>43.556</ele>
        <time>2011-08-05T11:00:55Z</time>
      </trkpt>
      <trkpt lat="37.09688" lon="-8.05208">
        <ele>44.915</ele>
        <time>2011-08-05T11:01:06Z</time>
      </trkpt>
      <trkpt lat="37.09516" lon="-8.05393">
        <ele>44.477</ele>
        <time>2011-08-05T11:01:18Z</time>
      </trkpt>
      <trkpt lat="37.0948" lon="-8.05475">
        <ele>45.154</ele>
        <time>2011-08-05T11:01:23Z</time>
      </trkpt>
      <trkpt lat="37.09399" lon="-8.05788">
        <ele>43.568</ele>
        <time>2011-08-05T11:01:38Z</time>
      </trkpt>
      <trkpt lat="37.09362" lon="-8.05983">
        <ele>43.208</ele>
        <time>2011-08-05T11:01:49Z</time>
      </trkpt>
      <trkpt lat="37.09362" lon="-8.06029">
        <ele>42.023</ele>
        <time>2011-08-05T11:01:53Z</time>
      </trkpt>
      <trkpt lat="37.09356" lon="-8.06066">
        <ele>42.166</ele>
        <time>2011-08-05T11:01:56Z</time>
      </trkpt>
      <trkpt lat="37.094" lon="-8.06172">
        <ele>44.008</ele>
        <time>2011-08-05T11:02:04Z</time>
      </trkpt>
      <trkpt lat="37.09497" lon="-8.0639">
        <ele>47.713</ele>
        <time>2011-08-05T11:02:17Z</time>
      </trkpt>
      <trkpt lat="37.09558" lon="-8.0659">
        <ele>51.326</ele>
        <time>2011-08-05T11:02:29Z</time>
      </trkpt>
      <trkpt lat="37.09549" lon="-8.06702">
        <ele>50.118</ele>
        <time>2011-08-05T11:02:35Z</time>
      </trkpt>
      <trkpt lat="37.09483" lon="-8.06848">
        <ele>46.059</ele>
        <time>2011-08-05T11:02:44Z</time>
      </trkpt>
      <trkpt lat="37.09402" lon="-8.07003">
        <ele>39.849</ele>
        <time>2011-08-05T11:02:55Z</time>
      </trkpt>
      <trkpt lat="37.09288" lon="-8.07128">
        <ele>35.534</ele>
        <time>2011-08-05T11:03:08Z</time>
      </trkpt>
      <trkpt lat="37.09186" lon="-8.07239">
        <ele>37.912</ele>
        <time>2011-08-05T11:03:21Z</time>
      </trkpt>
      <trkpt lat="37.09043" lon="-8.07414">
        <ele>40.67</ele>
        <time>2011-08-05T11:03:39Z</time>
      </trkpt>
      <trkpt lat="37.08957" lon="-8.07557">
        <ele>41.385</ele>
        <time>2011-08-05T11:03:52Z</time>
      </trkpt>
      <trkpt lat="37.08939" lon="-8.07589">
        <ele>40.39</ele>
        <time>2011-08-05T11:04:00Z</time>
      </trkpt>
      <trkpt lat="37.08915" lon="-8.07631">
        <ele>38.617</ele>
        <time>2011-08-05T11:04:11Z</time>
      </trkpt>
      <trkpt lat="37.08872" lon="-8.07706">
        <ele>36.847</ele>
        <time>2011-08-05T11:04:22Z</time>
      </trkpt>
      <trkpt lat="37.0883" lon="-8.07779">
        <ele>35.559</ele>
        <time>2011-08-05T11:04:32Z</time>
      </trkpt>
      <trkpt lat="37.08814" lon="-8.07807">
        <ele>33.507</ele>
        <time>2011-08-05T11:04:37Z</time>
      </trkpt>
      <trkpt lat="37.0875" lon="-8.07917">
        <ele>29.96</ele>
        <time>2011-08-05T11:04:50Z</time>
      </trkpt>
      <trkpt lat="37.08672" lon="-8.08044">
        <ele>32.784</ele>
        <time>2011-08-05T11:05:02Z</time>
      </trkpt>
      <trkpt lat="37.08584" lon="-8.08159">
        <ele>29.609</ele>
        <time>2011-08-05T11:05:14Z</time>
      </trkpt>
      <trkpt lat="37.08475" lon="-8.08274">
        <ele>29.479</ele>
        <time>2011-08-05T11:05:28Z</time>
      </trkpt>
      <trkpt lat="37.08456" lon="-8.08293">
        <ele>29.432</ele>
        <time>2011-08-05T11:05:31Z</time>
      </trkpt>
      <trkpt lat="37.08425" lon="-8.08345">
        <ele>27.517</ele>
        <time>2011-08-05T11:05:39Z</time>
      </trkpt>
      <trkpt lat="37.08392" lon="-8.0836">
        <ele>25.046</ele>
        <time>2011-08-05T11:05:44Z</time>
      </trkpt>
      <trkpt lat="37.08287" lon="-8.0846">
        <ele>23.28</ele>
        <time>2011-08-05T11:05:55Z</time>
      </trkpt>
      <trkpt lat="37.08201" lon="-8.08551">
        <ele>24.606</ele>
        <time>2011-08-05T11:06:03Z</time>
      </trkpt>
      <trkpt lat="37.08089" lon="-8.08743">
        <ele>30.363</ele>
        <time>2011-08-05T11:06:16Z</time>
      </trkpt>
      <trkpt lat="37.07993" lon="-8.08916">
        <ele>32.299</ele>
        <time>2011-08-05T11:06:28Z</time>
      </trkpt>
      <trkpt lat="37.07874" lon="-8.09138">
        <ele>28.314</ele>
        <time>2011-08-05T11:06:44Z</time>
      </trkpt>
      <trkpt lat="37.07851" lon="-8.09182">
        <ele>25.328</ele>
        <time>2011-08-05T11:06:50Z</time>
      </trkpt>
      <trkpt lat="37.07851" lon="-8.09182">
        <ele>23.877</ele>
        <time>2011-08-05T11:07:02Z</time>
      </trkpt>
      <trkpt lat="37.07834" lon="-8.09214">
        <ele>24.895</ele>
        <time>2011-08-05T11:07:12Z</time>
      </trkpt>
      <trkpt lat="37.0779" lon="-8.09296">
        <ele>25.993</ele>
        <time>2011-08-05T11:07:22Z</time>
      </trkpt>
      <trkpt lat="37.07714" lon="-8.09436">
        <ele>25.751</ele>
        <time>2011-08-05T11:07:36Z</time>
      </trkpt>
      <trkpt lat="37.07662" lon="-8.09544">
        <ele>27.015</ele>
        <time>2011-08-05T11:07:47Z</time>
      </trkpt>
      <trkpt lat="37.07668" lon="-8.09583">
        <ele>25.97</ele>
        <time>2011-08-05T11:07:53Z</time>
      </trkpt>
      <trkpt lat="37.07643" lon="-8.09619">
        <ele>26.403</ele>
        <time>2011-08-05T11:08:00Z</time>
      </trkpt>
      <trkpt lat="37.07627" lon="-8.09603">
        <ele>25.955</ele>
        <time>2011-08-05T11:08:03Z</time>
      </trkpt>
      <trkpt lat="37.07619" lon="-8.09587">
        <ele>26.405</ele>
        <time>2011-08-05T11:08:05Z</time>
      </trkpt>
      <trkpt lat="37.07537" lon="-8.09544">
        <ele>26.689</ele>
        <time>2011-08-05T11:08:14Z</time>
      </trkpt>
      <trkpt lat="37.07415" lon="-8.09486">
        <ele>28.477</ele>
        <time>2011-08-05T11:08:24Z</time>
      </trkpt>
      <trkpt lat="37.07347" lon="-8.09517">
        <ele>30.427</ele>
        <time>2011-08-05T11:08:30Z</time>
      </trkpt>
      <trkpt lat="37.07339" lon="-8.09528">
        <ele>30.723</ele>
        <time>2011-08-05T11:08:31Z</time>
      </trkpt>
      <trkpt lat="37.07213" lon="-8.09695">
        <ele>28.222</ele>
        <time>2011-08-05T11:08:47Z</time>
      </trkpt>
      <trkpt lat="37.07155" lon="-8.09772">
        <ele>24.186</ele>
        <time>2011-08-05T11:08:57Z</time>
      </trkpt>
      <trkpt lat="37.07155" lon="-8.09772">
        <ele>25.236</ele>
        <time>2011-08-05T11:09:19Z</time>
      </trkpt>
      <trkpt lat="37.07139" lon="-8.09792">
        <ele>23.888</ele>
        <time>2011-08-05T11:09:39Z</time>
      </trkpt>
      <trkpt lat="37.07077" lon="-8.09859">
        <ele>24.088</ele>
        <time>2011-08-05T11:09:47Z</time>
      </trkpt>
      <trkpt lat="37.06992" lon="-8.09908">
        <ele>30.499</ele>
        <time>2011-08-05T11:09:56Z</time>
      </trkpt>
      <trkpt lat="37.06956" lon="-8.09918">
        <ele>31.086</ele>
        <time>2011-08-05T11:10:00Z</time>
      </trkpt>
      <trkpt lat="37.06839" lon="-8.09941">
        <ele>27.118</ele>
        <time>2011-08-05T11:10:12Z</time>
      </trkpt>
      <trkpt lat="37.06794" lon="-8.09953">
        <ele>24.891</ele>
        <time>2011-08-05T11:10:17Z</time>
      </trkpt>
      <trkpt lat="37.0677" lon="-8.0996">
        <ele>23.987</ele>
        <time>2011-08-05T11:10:20Z</time>
      </trkpt>
      <trkpt lat="37.06757" lon="-8.09964">
        <ele>19.692</ele>
        <time>2011-08-05T11:10:23Z</time>
      </trkpt>
      <trkpt lat="37.0675" lon="-8.09989">
        <ele>17.374</ele>
        <time>2011-08-05T11:10:29Z</time>
      </trkpt>
      <trkpt lat="37.06787" lon="-8.10088">
        <ele>16.359</ele>
        <time>2011-08-05T11:10:42Z</time>
      </trkpt>
    </trkseg>
  </trk>
</gpx>